Terminal Aerodrome Forecast
Issued by NWS

Home | Current Version | Previous Version | Text Only | Print | Product List | Glossary On
Versions: 1 2 3 4 5 6 7 8 9 10 11 12 13
000
FTAK31 PAJN 031700
TAFASI
TAF
PASI 031739Z 0318/0418 32006KT P6SM FEW200
     FM032300 29008KT P6SM SKC
     FM040300 VRB04KT P6SM FEW100
     FM040900 08005KT P6SM SCT100=

USA.gov is the U.S. government's official web portal to all federal, state and local government web resources and services.